CYCB

Cambridge Bay Airport

Cambridge Bay, Canada
TAF AMD CYCB 170131Z 1701/1713 35018G28KT 1/2SM BLSN VV004 TEMPO 1701/1706 11/2SM IC BLSN SCT005 FM170600 35015G25KT 1SM BLSN BKN012 TEMPO 1706/1713 2SM IC BLSN SCT015 RMK NXT FCST BY 170700Z
Issued Valid From Valid To
Jan-17 @ 01:31 UTC
(3 hours ago)
Jan-17 @ 01:00 UTC
(4 hours ago)
Jan-17 @ 13:00 UTC
(in 8 hours)
Jan-17 @ 01:00 to Jan-17 @ 06:00
TAF AMD CYCB 170131Z 1701/1713 35018G28KT 1/2SM BLSN VV004
Wind Visibility Clouds Conditions
350° at 18 knots
 Gusting to 28 knots
1/2 miles
  • Vertical visibility at 400' AGL
  • Blowing
  • Snow
Temporary Jan-17 @ 01:00 to Jan-17 @ 06:00
TEMPO 1701/1706 11/2SM IC BLSN SCT005
Visibility Clouds Conditions
1 1/2 miles
  • Scattered at 500' AGL
  • Ice crystals
  • Blowing
  • Snow
Temporary Jan-17 @ 06:00 to Jan-17 @ 13:00
TEMPO 1706/1713 2SM IC BLSN SCT015 RMK NXT FCST BY 170700Z
Visibility Clouds Conditions
2 miles
  • Scattered at 1,500' AGL
  • Ice crystals
  • Blowing
  • Snow
From Jan-17 @ 06:00 to Jan-17 @ 13:00
FM170600 35015G25KT 1SM BLSN BKN012
Wind Visibility Clouds Conditions
350° at 15 knots
 Gusting to 25 knots
1 miles
  • Broken at 1,200' AGL
  • Blowing
  • Snow
TAF AMD CYCB 170131Z 1701/1713 35018G28KT 1/2SM BLSN VV004 TEMPO 1701/1706 11/2SM IC BLSN SCT005 FM170600 35015G25KT 1SM BLSN BKN012 TEMPO 1706/1713 2SM IC BLSN SCT015 RMK NXT FCST BY 170700Z
Issued Jan-17 @ 01:31 UTC
(3 hours ago)
Valid From Jan-17 @ 01:00 UTC
(4 hours ago)
Valid To Jan-17 @ 13:00 UTC
(in 8 hours)
Jan-17 @ 01:00 - Jan-17 @ 06:00
Wind Visibility
350° at 18 knots
 Gusting to 28 knots
1/2 miles
Clouds
  • Vertical visibility at 400' AGL
Conditions
  • Blowing
  • Snow
Temporary Jan-17 @ 01:00 - Jan-17 @ 06:00
Clouds
  • Scattered at 500' AGL
Conditions
  • Ice crystals
  • Blowing
  • Snow
Temporary Jan-17 @ 06:00 - Jan-17 @ 13:00
Clouds
  • Scattered at 1,500' AGL
Conditions
  • Ice crystals
  • Blowing
  • Snow
From Jan-17 @ 06:00 - Jan-17 @ 13:00
Wind Visibility
350° at 15 knots
 Gusting to 25 knots
1 miles
Clouds
  • Broken at 1,200' AGL
Conditions
  • Blowing
  • Snow